createdAt,value
2023-05-22T00:00:44.477Z,18.70
2023-05-22T00:03:16.709Z,16.27
2023-05-22T00:05:46.348Z,15.77
2023-05-22T00:08:16.304Z,15.88
2023-05-22T00:10:45.944Z,16.60
2023-05-22T00:13:15.574Z,19.05
2023-05-22T00:15:45.185Z,17.00
2023-05-22T00:18:17.989Z,16.77
2023-05-22T00:20:47.596Z,16.00
2023-05-22T00:23:17.427Z,15.93
2023-05-22T00:25:47.056Z,15.85
2023-05-22T00:28:16.638Z,17.30
2023-05-22T00:30:46.236Z,16.67
2023-05-22T00:33:18.525Z,17.52
2023-05-22T00:35:48.139Z,16.92
2023-05-22T00:38:31.156Z,17.13
2023-05-22T00:41:00.819Z,17.05
2023-05-22T00:43:30.546Z,18.02
2023-05-22T00:46:00.466Z,16.63
2023-05-22T00:48:32.716Z,15.45
2023-05-22T00:51:02.325Z,17.27
2023-05-22T00:53:31.972Z,16.60
2023-05-22T00:56:01.682Z,15.95
2023-05-22T00:58:31.313Z,16.20
2023-05-22T01:01:01.316Z,17.15
2023-05-22T01:03:34.048Z,17.60
2023-05-22T01:06:04.049Z,16.48
2023-05-22T01:08:33.669Z,15.37
2023-05-22T01:11:04.751Z,15.73
2023-05-22T01:13:37.712Z,19.10
2023-05-22T01:16:11.938Z,16.88
2023-05-22T01:18:47.126Z,17.52
2023-05-22T01:21:22.248Z,16.83
2023-05-22T01:24:27.676Z,16.90
2023-05-22T01:27:17.960Z,17.05
2023-05-22T01:29:50.342Z,19.77
2023-05-22T01:32:24.128Z,18.50
2023-05-22T01:35:04.309Z,18.15
2023-05-22T01:37:33.919Z,18.45
2023-05-22T01:40:03.838Z,16.70
2023-05-22T01:42:33.452Z,18.65
2023-05-22T01:45:03.061Z,17.95
2023-05-22T01:47:35.818Z,17.98
2023-05-22T01:50:05.922Z,18.77
2023-05-22T01:52:38.898Z,19.50
2023-05-22T01:55:13.640Z,18.88
2023-05-22T01:57:46.947Z,18.98
2023-05-22T02:00:17.322Z,17.70
2023-05-22T02:05:21.202Z,18.80
2023-05-22T02:07:50.856Z,18.33
2023-05-22T02:10:20.612Z,20.65
2023-05-22T02:12:50.213Z,20.38
2023-05-22T02:15:19.888Z,20.90
2023-05-22T02:17:53.455Z,19.80
2023-05-22T02:20:23.184Z,18.95
2023-05-22T02:22:52.806Z,23.00
2023-05-22T02:25:22.443Z,21.55
2023-05-22T02:27:52.433Z,19.30
2023-05-22T02:30:22.091Z,19.10
2023-05-22T02:32:55.036Z,21.10
2023-05-22T02:35:24.602Z,19.63
2023-05-22T02:37:54.233Z,18.67
2023-05-22T02:40:23.857Z,20.45
2023-05-22T02:42:53.482Z,20.70
2023-05-22T02:45:23.130Z,20.02
2023-05-22T02:47:55.356Z,21.58
2023-05-22T02:50:24.989Z,21.17
2023-05-22T02:52:54.598Z,20.88
2023-05-22T02:55:24.351Z,26.13
2023-05-22T02:57:54.027Z,19.90
2023-05-22T03:00:23.929Z,21.15
2023-05-22T03:02:56.230Z,22.33
2023-05-22T03:05:25.880Z,21.75
2023-05-22T03:07:56.122Z,21.17
2023-05-22T03:10:25.874Z,21.25
2023-05-22T03:12:55.535Z,20.90
2023-05-22T03:15:25.154Z,20.98
2023-05-22T03:17:57.356Z,23.25
2023-05-22T03:20:26.991Z,21.52
2023-05-22T03:22:56.593Z,20.33
2023-05-22T03:25:26.191Z,22.75
2023-05-22T03:27:55.803Z,20.27
2023-05-22T03:30:25.624Z,22.42
2023-05-22T03:32:57.896Z,23.80
2023-05-22T03:35:27.574Z,24.73
2023-05-22T03:37:57.202Z,20.85
2023-05-22T03:40:26.865Z,22.77
2023-05-22T03:42:56.469Z,24.10
2023-05-22T03:45:26.061Z,25.45
2023-05-22T03:47:58.284Z,24.40
2023-05-22T03:50:27.922Z,24.95
2023-05-22T03:52:57.536Z,22.95
2023-05-22T03:55:27.198Z,23.08
2023-05-22T03:57:56.812Z,23.88
2023-05-22T04:00:27.185Z,24.80
2023-05-22T04:02:59.506Z,24.23
2023-05-22T04:05:30.490Z,22.20
2023-05-22T04:08:00.312Z,22.50
2023-05-22T04:10:29.956Z,21.20
2023-05-22T04:12:59.659Z,23.15
2023-05-22T04:15:29.453Z,24.73
2023-05-22T04:18:01.664Z,23.15
2023-05-22T04:20:32.475Z,25.38
2023-05-22T04:23:02.096Z,23.77
2023-05-22T04:25:31.770Z,23.67
2023-05-22T04:28:03.279Z,24.83
2023-05-22T04:30:34.220Z,26.48
2023-05-22T04:35:36.305Z,23.70
2023-05-22T04:38:06.830Z,24.42
2023-05-22T04:40:38.360Z,23.48
2023-05-22T04:43:08.663Z,26.75
2023-05-22T04:45:38.254Z,25.80
2023-05-22T04:48:12.156Z,25.60
2023-05-22T04:50:41.939Z,26.45
2023-05-22T04:53:12.877Z,26.25
2023-05-22T04:55:42.551Z,25.17
2023-05-22T04:58:12.159Z,26.23
2023-05-22T05:00:41.864Z,26.98
2023-05-22T05:03:14.417Z,25.50
2023-05-22T05:05:45.050Z,28.23
2023-05-22T05:08:14.650Z,26.08
2023-05-22T05:10:44.279Z,26.00
2023-05-22T05:13:14.991Z,25.85
2023-05-22T05:15:44.629Z,27.38
2023-05-22T05:18:17.304Z,24.50
2023-05-22T05:20:47.001Z,26.00
2023-05-22T05:23:16.657Z,28.25
2023-05-22T05:25:46.627Z,25.30
2023-05-22T05:28:16.236Z,25.98
2023-05-22T05:30:45.940Z,24.73
2023-05-22T05:33:18.207Z,25.00
2023-05-22T05:35:50.457Z,24.15
2023-05-22T05:38:20.070Z,25.20
2023-05-22T05:40:49.806Z,24.63
2023-05-22T05:43:20.410Z,25.67
2023-05-22T05:45:50.068Z,24.10
2023-05-22T05:48:22.285Z,23.77
2023-05-22T05:50:51.918Z,23.15
2023-05-22T05:53:21.674Z,24.23
2023-05-22T05:55:51.782Z,24.25
2023-05-22T05:58:21.414Z,24.50
2023-05-22T06:00:51.041Z,24.13
2023-05-22T06:03:25.759Z,23.08
2023-05-22T06:05:55.923Z,24.38
2023-05-22T06:08:25.571Z,23.67
2023-05-22T06:10:55.317Z,22.70
2023-05-22T06:13:24.928Z,22.33
2023-05-22T06:15:54.742Z,21.55
2023-05-22T06:18:27.125Z,21.33
2023-05-22T06:20:59.431Z,22.02
2023-05-22T06:23:29.096Z,21.15
2023-05-22T06:25:59.136Z,21.08
2023-05-22T06:28:29.146Z,20.30
2023-05-22T06:30:58.771Z,21.10
2023-05-22T06:33:31.404Z,19.20
2023-05-22T06:36:01.122Z,20.08
2023-05-22T06:38:31.588Z,20.83
2023-05-22T06:41:01.224Z,19.73
2023-05-22T06:43:30.849Z,19.63
2023-05-22T06:46:00.487Z,18.20
2023-05-22T06:48:35.919Z,19.73
2023-05-22T06:51:05.548Z,21.35
2023-05-22T06:53:35.245Z,21.38
2023-05-22T06:56:04.854Z,21.67
2023-05-22T06:58:34.478Z,21.33
2023-05-22T07:01:04.169Z,21.70
2023-05-22T07:03:36.379Z,25.27
2023-05-22T07:06:06.415Z,20.27
2023-05-22T07:08:36.690Z,21.13
2023-05-22T07:11:07.073Z,20.58
2023-05-22T07:13:36.724Z,19.95
2023-05-22T07:16:06.687Z,19.48
2023-05-22T07:18:40.244Z,17.98
2023-05-22T07:21:09.890Z,19.00
2023-05-22T07:23:39.526Z,17.95
2023-05-22T07:26:09.970Z,17.98
2023-05-22T07:28:39.592Z,19.83
2023-05-22T07:31:09.340Z,17.27
2023-05-22T07:33:41.616Z,17.13
2023-05-22T07:36:11.843Z,18.67
2023-05-22T07:38:41.436Z,19.63
2023-05-22T07:41:11.123Z,22.23
2023-05-22T07:43:40.745Z,21.02
2023-05-22T07:46:10.380Z,18.90
2023-05-22T07:48:42.974Z,20.55
2023-05-22T07:51:13.792Z,20.80
2023-05-22T07:56:13.547Z,19.77
2023-05-22T07:58:44.222Z,56.03
2023-05-22T08:03:48.083Z,21.98
2023-05-22T08:06:18.089Z,19.48
2023-05-22T08:08:47.739Z,20.13
2023-05-22T08:11:17.298Z,16.52
2023-05-22T08:13:46.917Z,19.77
2023-05-22T08:16:16.567Z,35.03
2023-05-22T08:18:48.816Z,86.43
2023-05-22T08:21:18.446Z,19.90
2023-05-22T08:23:48.134Z,19.27
2023-05-22T08:26:17.815Z,23.10
2023-05-22T08:28:47.752Z,27.65
2023-05-22T08:31:17.412Z,58.37
2023-05-22T08:33:49.727Z,44.72
2023-05-22T08:36:19.377Z,22.42
2023-05-22T08:38:49.028Z,108.93
2023-05-22T08:41:18.817Z,17.58
2023-05-22T08:43:48.480Z,26.40
2023-05-22T08:46:20.306Z,92.65
2023-05-22T08:48:52.710Z,41.25
2023-05-22T08:51:22.548Z,19.00
2023-05-22T08:53:52.130Z,16.70
2023-05-22T08:56:22.412Z,16.30
2023-05-22T08:58:52.126Z,18.02
2023-05-22T09:01:21.792Z,18.35
2023-05-22T09:03:54.130Z,24.40
2023-05-22T09:06:23.876Z,19.85
2023-05-22T09:08:54.128Z,18.13
2023-05-22T09:11:23.823Z,19.75
2023-05-22T09:13:54.067Z,18.67
2023-05-22T09:16:23.741Z,27.35
2023-05-22T09:18:56.173Z,20.13
2023-05-22T09:21:30.634Z,20.88
2023-05-22T09:24:02.926Z,19.05
2023-05-22T09:29:03.182Z,22.15
2023-05-22T09:31:32.826Z,17.63
2023-05-22T09:34:05.241Z,18.25
2023-05-22T09:36:35.296Z,18.45
2023-05-22T09:41:37.189Z,17.67
2023-05-22T09:44:14.567Z,18.38
2023-05-22T09:46:44.495Z,22.45
2023-05-22T09:49:17.198Z,17.20
2023-05-22T09:51:48.524Z,17.10
2023-05-22T09:54:18.764Z,16.75
2023-05-22T09:56:48.440Z,17.35
2023-05-22T09:59:18.388Z,17.33
2023-05-22T10:01:48.243Z,17.17
2023-05-22T10:04:20.793Z,14.75
2023-05-22T10:06:52.863Z,17.33
2023-05-22T10:09:24.617Z,15.75
2023-05-22T10:11:54.998Z,15.73
2023-05-22T10:14:24.716Z,16.20
2023-05-22T10:16:54.339Z,15.00
2023-05-22T10:19:29.207Z,18.00
2023-05-22T10:21:58.943Z,16.20
2023-05-22T10:24:28.605Z,16.80
2023-05-22T10:26:58.223Z,16.08
2023-05-22T10:29:31.481Z,14.32
2023-05-22T10:32:04.666Z,15.13
2023-05-22T10:34:40.015Z,14.00
2023-05-22T10:37:20.251Z,17.55
2023-05-22T10:39:57.550Z,16.48
2023-05-22T10:42:27.176Z,15.30
2023-05-22T10:44:56.854Z,15.73
2023-05-22T10:47:26.485Z,16.15
2023-05-22T10:50:06.212Z,16.70
2023-05-22T10:52:35.924Z,14.98
2023-05-22T10:55:08.965Z,17.37
2023-05-22T10:57:40.313Z,15.65
2023-05-22T11:00:14.509Z,16.17
2023-05-22T11:02:45.559Z,15.30
2023-05-22T11:05:39.080Z,14.30
2023-05-22T11:08:15.774Z,15.30
2023-05-22T11:10:56.251Z,15.23
2023-05-22T11:13:29.597Z,15.45
2023-05-22T11:15:59.424Z,17.10
2023-05-22T11:18:31.563Z,15.93
2023-05-22T11:21:06.174Z,16.83
2023-05-22T11:23:39.705Z,15.90
2023-05-22T11:26:27.245Z,15.85
2023-05-22T11:28:57.648Z,17.35
2023-05-22T11:31:27.692Z,15.20
2023-05-22T11:33:57.467Z,16.30
2023-05-22T11:36:29.974Z,16.20
2023-05-22T11:39:00.958Z,16.13
2023-05-22T11:41:34.645Z,15.93
2023-05-22T11:44:04.368Z,15.00
2023-05-22T11:46:33.981Z,14.63
2023-05-22T11:49:03.711Z,14.40
2023-05-22T11:51:36.072Z,16.80
2023-05-22T11:54:06.367Z,17.63
2023-05-22T11:56:35.980Z,18.15
2023-05-22T11:59:05.651Z,15.13
2023-05-22T12:01:36.471Z,17.07
2023-05-22T12:04:06.225Z,13.82
2023-05-22T12:06:38.711Z,15.17
2023-05-22T12:09:08.992Z,15.88
2023-05-22T12:11:38.672Z,18.38
2023-05-22T12:14:08.575Z,15.43
2023-05-22T12:16:39.002Z,17.02
2023-05-22T12:19:09.353Z,15.68
2023-05-22T12:21:42.384Z,14.70
2023-05-22T12:24:12.739Z,15.82
2023-05-22T12:26:42.389Z,17.20
2023-05-22T12:29:11.961Z,15.25
2023-05-22T12:31:41.693Z,19.00
2023-05-22T12:34:11.456Z,15.33
2023-05-22T12:36:44.435Z,15.07
2023-05-22T12:39:15.068Z,16.17
2023-05-22T12:44:14.044Z,15.88
2023-05-22T12:46:43.671Z,17.55
2023-05-22T12:49:13.417Z,16.23
2023-05-22T12:51:45.639Z,16.17
2023-05-22T12:54:15.563Z,16.35
2023-05-22T12:56:45.177Z,19.77
2023-05-22T12:59:14.791Z,17.67
2023-05-22T13:01:44.466Z,14.67
2023-05-22T13:06:46.393Z,17.73
2023-05-22T13:09:18.028Z,15.68
2023-05-22T13:11:48.099Z,17.38
2023-05-22T13:14:18.305Z,16.50
2023-05-22T13:16:47.918Z,17.42
2023-05-22T13:19:17.658Z,16.17
2023-05-22T13:21:49.992Z,15.85
2023-05-22T13:24:19.661Z,17.85
2023-05-22T13:26:49.344Z,17.17
2023-05-22T13:29:19.230Z,17.03
2023-05-22T13:31:48.872Z,16.00
2023-05-22T13:34:18.591Z,16.77
2023-05-22T13:36:51.091Z,15.48
2023-05-22T13:39:20.732Z,17.50
2023-05-22T13:41:50.432Z,15.60
2023-05-22T13:44:21.326Z,15.20
2023-05-22T13:46:51.073Z,15.40
2023-05-22T13:49:20.709Z,15.63
2023-05-22T13:51:52.895Z,15.82
2023-05-22T13:54:22.535Z,15.23
2023-05-22T13:59:21.915Z,16.40
2023-05-22T14:01:51.550Z,14.65
2023-05-22T14:04:21.333Z,14.80
2023-05-22T14:06:53.566Z,14.33
2023-05-22T14:09:23.249Z,15.32
2023-05-22T14:11:52.904Z,16.17
2023-05-22T14:14:24.119Z,14.63
2023-05-22T14:16:53.872Z,14.38
2023-05-22T14:19:24.719Z,15.05
2023-05-22T14:21:56.963Z,14.98
2023-05-22T14:24:26.607Z,14.07
2023-05-22T14:26:58.243Z,15.63
2023-05-22T14:29:28.228Z,13.70
2023-05-22T14:31:59.546Z,13.68
2023-05-22T14:34:29.127Z,14.23
2023-05-22T14:37:01.310Z,15.18
2023-05-22T14:39:31.033Z,17.83
2023-05-22T14:42:01.096Z,17.93
2023-05-22T14:44:30.734Z,18.98
2023-05-22T14:47:00.381Z,19.57
2023-05-22T14:49:30.027Z,19.83
2023-05-22T14:52:02.257Z,20.53
2023-05-22T14:54:31.921Z,20.42
2023-05-22T14:57:01.774Z,19.20
2023-05-22T14:59:31.975Z,20.60
2023-05-22T15:02:01.620Z,18.83
2023-05-22T15:04:31.449Z,21.53
2023-05-22T15:07:03.714Z,22.85
2023-05-22T15:09:33.331Z,21.83
2023-05-22T15:12:03.015Z,22.30
2023-05-22T15:14:33.078Z,21.73
2023-05-22T15:17:02.797Z,23.05
2023-05-22T15:19:32.733Z,24.00
2023-05-22T15:22:15.899Z,23.90
2023-05-22T15:24:49.882Z,22.17
2023-05-22T15:27:19.549Z,23.67
2023-05-22T15:29:49.160Z,22.10
2023-05-22T15:32:19.021Z,24.98
2023-05-22T15:34:48.693Z,22.58
2023-05-22T15:37:20.914Z,20.00
2023-05-22T15:39:50.584Z,20.33
2023-05-22T15:42:20.232Z,19.15
2023-05-22T15:44:49.840Z,19.02
2023-05-22T15:47:19.461Z,20.23
2023-05-22T15:49:49.088Z,17.30
2023-05-22T15:52:23.471Z,17.33
2023-05-22T15:54:55.010Z,18.38
2023-05-22T15:57:25.911Z,18.15
2023-05-22T15:59:55.517Z,21.42
2023-05-22T16:02:25.625Z,19.02
2023-05-22T16:04:55.320Z,18.33
2023-05-22T16:07:27.656Z,18.67
2023-05-22T16:09:57.282Z,18.65
2023-05-22T16:12:26.900Z,17.88
2023-05-22T16:15:00.331Z,18.98
2023-05-22T16:17:30.603Z,19.30
2023-05-22T16:20:00.252Z,23.88
2023-05-22T16:22:44.299Z,20.13
2023-05-22T16:25:18.325Z,18.75
2023-05-22T16:27:48.085Z,22.13
2023-05-22T16:30:18.792Z,20.65
2023-05-22T16:35:19.763Z,22.08
2023-05-22T16:37:52.867Z,24.80
2023-05-22T16:40:22.695Z,22.05
2023-05-22T16:42:52.269Z,22.80
2023-05-22T16:45:21.878Z,20.92
2023-05-22T16:47:52.367Z,22.20
2023-05-22T16:50:24.162Z,21.67
2023-05-22T16:52:56.377Z,21.33
2023-05-22T16:55:25.987Z,22.90
2023-05-22T16:57:55.685Z,22.35
2023-05-22T17:00:25.696Z,22.40
2023-05-22T17:02:56.111Z,21.98
2023-05-22T17:05:26.380Z,22.58
2023-05-22T17:07:58.556Z,21.90
2023-05-22T17:10:28.194Z,22.30
2023-05-22T17:12:57.859Z,22.48
2023-05-22T17:15:27.518Z,23.80
2023-05-22T17:17:57.176Z,22.85
2023-05-22T17:20:26.884Z,21.52
2023-05-22T17:22:59.160Z,21.98
2023-05-22T17:25:28.748Z,22.45
2023-05-22T17:27:58.352Z,23.42
2023-05-22T17:30:28.079Z,21.65
2023-05-22T17:32:58.159Z,22.92
2023-05-22T17:35:28.112Z,23.73
2023-05-22T17:38:00.371Z,22.70
2023-05-22T17:40:43.094Z,21.92
2023-05-22T17:43:14.870Z,23.50
2023-05-22T17:45:44.694Z,27.50
2023-05-22T17:48:16.047Z,22.80
2023-05-22T17:50:45.672Z,24.00
2023-05-22T17:53:18.059Z,24.40
2023-05-22T17:55:48.178Z,24.60
2023-05-22T17:58:18.033Z,24.60
2023-05-22T18:00:49.004Z,23.67
2023-05-22T18:03:20.653Z,24.27
2023-05-22T18:05:50.727Z,26.60
2023-05-22T18:08:22.970Z,23.57
2023-05-22T18:10:52.601Z,24.63
2023-05-22T18:13:22.232Z,25.08
2023-05-22T18:15:52.082Z,25.63
2023-05-22T18:18:22.621Z,25.07
2023-05-22T18:20:52.546Z,26.08
2023-05-22T18:23:24.747Z,25.17
2023-05-22T18:25:54.565Z,26.52
2023-05-22T18:28:26.732Z,25.35
2023-05-22T18:30:56.451Z,23.73
2023-05-22T18:33:26.764Z,25.33
2023-05-22T18:35:57.411Z,25.00
2023-05-22T18:38:30.459Z,23.92
2023-05-22T18:41:00.144Z,24.67
2023-05-22T18:43:30.401Z,24.27
2023-05-22T18:46:00.358Z,24.80
2023-05-22T18:48:31.072Z,26.48
2023-05-22T18:51:00.935Z,27.35
2023-05-22T18:53:33.176Z,26.15
2023-05-22T18:56:02.961Z,28.35
2023-05-22T18:58:32.548Z,27.40
2023-05-22T19:01:02.418Z,29.55
2023-05-22T19:03:32.208Z,30.63
2023-05-22T19:06:02.413Z,30.65
2023-05-22T19:08:34.851Z,34.17
2023-05-22T19:11:04.642Z,31.65
2023-05-22T19:13:34.258Z,33.35
2023-05-22T19:16:04.217Z,38.10
2023-05-22T19:18:33.830Z,35.73
2023-05-22T19:21:03.456Z,37.50
2023-05-22T19:23:36.880Z,37.17
2023-05-22T19:26:06.507Z,38.60
2023-05-22T19:28:36.134Z,39.47
2023-05-22T19:31:05.921Z,41.63
2023-05-22T19:33:35.739Z,50.50
2023-05-22T19:36:06.774Z,41.40
2023-05-22T19:38:38.980Z,38.17
2023-05-22T19:41:08.560Z,44.50
2023-05-22T19:43:38.178Z,46.05
2023-05-22T19:46:08.972Z,43.33
2023-05-22T19:48:38.851Z,45.88
2023-05-22T19:51:08.949Z,44.58
2023-05-22T19:53:41.322Z,45.22
2023-05-22T19:56:10.935Z,48.15
2023-05-22T19:58:40.532Z,47.10
2023-05-22T20:01:10.181Z,47.70
2023-05-22T20:03:40.177Z,49.63
2023-05-22T20:06:10.214Z,49.87
2023-05-22T20:08:42.599Z,52.72
2023-05-22T20:11:12.236Z,52.17
2023-05-22T20:13:41.886Z,55.47
2023-05-22T20:16:12.907Z,54.13
2023-05-22T20:18:44.602Z,48.95
2023-05-22T20:21:14.217Z,52.63
2023-05-22T20:23:46.453Z,55.92
2023-05-22T20:26:16.046Z,54.88
2023-05-22T20:28:45.660Z,54.38
2023-05-22T20:31:15.312Z,57.58
2023-05-22T20:33:44.987Z,54.35
2023-05-22T20:36:16.646Z,53.80
2023-05-22T20:38:48.861Z,56.13
2023-05-22T20:41:19.515Z,59.15
2023-05-22T20:43:50.602Z,53.97
2023-05-22T20:46:20.225Z,58.97
2023-05-22T20:48:49.832Z,55.53
2023-05-22T20:51:20.758Z,54.47
2023-05-22T20:53:53.647Z,55.40
2023-05-22T20:56:23.672Z,58.53
2023-05-22T20:58:53.305Z,58.97
2023-05-22T21:01:23.011Z,57.42
2023-05-22T21:03:52.890Z,54.30
2023-05-22T21:06:22.999Z,54.25
2023-05-22T21:08:59.106Z,54.25
2023-05-22T21:11:28.835Z,56.83
2023-05-22T21:13:58.453Z,54.15
2023-05-22T21:16:28.149Z,56.42
2023-05-22T21:18:57.809Z,52.17
2023-05-22T21:21:27.460Z,53.35
2023-05-22T21:23:59.648Z,56.17
2023-05-22T21:26:29.221Z,53.80
2023-05-22T21:28:58.995Z,50.88
2023-05-22T21:31:28.654Z,55.40
2023-05-22T21:33:58.307Z,52.33
2023-05-22T21:36:27.945Z,55.53
2023-05-22T21:39:01.024Z,49.72
2023-05-22T21:41:30.790Z,48.97
2023-05-22T21:44:00.544Z,54.97
2023-05-22T21:46:30.206Z,50.70
2023-05-22T21:49:00.091Z,51.35
2023-05-22T21:51:29.730Z,51.38
2023-05-22T21:54:01.946Z,49.50
2023-05-22T21:56:31.522Z,48.30
2023-05-22T21:59:01.103Z,49.38
2023-05-22T22:01:30.818Z,48.20
2023-05-22T22:04:00.668Z,50.05
2023-05-22T22:06:30.523Z,48.03
2023-05-22T22:09:03.783Z,46.47
2023-05-22T22:11:33.460Z,47.08
2023-05-22T22:14:03.060Z,46.65
2023-05-22T22:16:36.143Z,47.08
2023-05-22T22:19:05.885Z,44.70
2023-05-22T22:21:36.306Z,49.88
2023-05-22T22:24:08.921Z,44.28
2023-05-22T22:26:39.032Z,43.75
2023-05-22T22:29:08.803Z,44.25
2023-05-22T22:31:38.594Z,44.17
2023-05-22T22:34:08.375Z,41.53
2023-05-22T22:36:39.288Z,40.97
2023-05-22T22:41:41.254Z,40.03
2023-05-22T22:44:10.912Z,40.80
2023-05-22T22:46:40.610Z,44.60
2023-05-22T22:49:10.333Z,43.60
2023-05-22T22:51:40.071Z,39.40
2023-05-22T22:54:14.950Z,39.17
2023-05-22T22:56:44.553Z,36.85
2023-05-22T22:59:14.172Z,37.85
2023-05-22T23:01:43.853Z,36.50
2023-05-22T23:04:13.597Z,37.65
2023-05-22T23:06:43.760Z,37.75
2023-05-22T23:09:15.965Z,38.17
2023-05-22T23:11:45.580Z,34.92
2023-05-22T23:14:15.245Z,39.45
2023-05-22T23:16:44.844Z,33.75
2023-05-22T23:19:14.525Z,36.38
2023-05-22T23:21:44.241Z,34.50
2023-05-22T23:24:16.452Z,36.20
2023-05-22T23:26:46.098Z,31.75
2023-05-22T23:29:15.659Z,35.55
2023-05-22T23:31:46.543Z,33.42
2023-05-22T23:36:45.717Z,32.70
2023-05-22T23:39:17.879Z,31.75
2023-05-22T23:41:47.560Z,33.35
2023-05-22T23:44:17.107Z,33.40
2023-05-22T23:46:47.816Z,31.73
2023-05-22T23:49:17.432Z,31.90
2023-05-22T23:51:47.010Z,33.35
2023-05-22T23:54:19.366Z,32.38
2023-05-22T23:56:48.964Z,32.72
2023-05-22T23:59:18.592Z,34.70
